Time;durP1;ratioP1;P1;durP2;ratioP2;P2;SDS_P1;SDS_P2;PMS_P1;PMS_P2;Temp;Humidity;BMP_temperature;BMP_pressure;BME280_temperature;BME280_humidity;BME280_pressure;Samples;Min_cycle;Max_cycle;Signal;HPM_P1;HPM_P2
2022/06/24 00:02:10;;;;;;;3.88;1.98;;;;;;;26.47;30.37;98991.50;4995589;28;20110;-60
2022/06/24 00:04:38;;;;;;;3.72;1.90;;;;;;;26.46;30.56;98994.41;5012805;28;20573;-59
2022/06/24 00:07:15;;;;;;;2.10;1.83;;;;;;;26.38;30.66;98981.97;5011554;28;20056;-58
2022/06/24 00:09:43;;;;;;;3.42;1.55;;;;;;;26.40;30.59;98978.00;4995187;28;20046;-59
2022/06/24 00:12:21;;;;;;;2.20;1.58;;;;;;;26.36;30.60;98987.59;5012650;28;20049;-59
2022/06/24 00:15:01;;;;;;;3.15;1.90;;;;;;;26.31;30.65;98978.47;4995363;28;20436;-62
2022/06/24 00:17:30;;;;;;;4.10;1.98;;;;;;;26.32;30.85;98975.56;5012763;28;20049;-59
2022/06/24 00:19:59;;;;;;;2.00;1.60;;;;;;;26.28;30.64;98971.63;5012338;28;20104;-58
2022/06/24 00:22:29;;;;;;;4.15;1.73;;;;;;;26.24;30.93;98964.97;5012184;28;20046;-59
2022/06/24 00:25:23;;;;;;;2.70;1.73;;;;;;;26.16;30.46;98963.28;5012363;28;20491;-62
2022/06/24 00:28:01;;;;;;;;;;;;;;;26.17;30.10;98958.75;5012805;28;20096;-59
2022/06/24 00:30:29;;;;;;;2.08;1.40;;;;;;;26.18;30.69;98958.53;5012287;28;19925;-62
2022/06/24 00:33:22;;;;;;;4.60;2.00;;;;;;;26.05;30.54;98956.66;5012104;28;20058;-60
2022/06/24 00:35:56;;;;;;;2.42;1.52;;;;;;;26.03;31.25;98956.06;5012703;28;20054;-59
2022/06/24 00:38:31;;;;;;;3.10;1.92;;;;;;;25.97;31.05;98952.31;5012236;28;20049;-59
2022/06/24 00:41:04;;;;;;;2.22;1.77;;;;;;;25.96;31.24;98949.84;4994842;28;20050;-62
2022/06/24 00:43:31;;;;;;;;;;;;;;;25.93;30.19;98947.56;5012419;28;20053;-59
2022/06/24 00:46:03;;;;;;;2.78;1.50;;;;;;;25.95;30.90;98942.78;5012365;28;19926;-59
2022/06/24 00:48:34;;;;;;;2.08;1.67;;;;;;;25.92;30.67;98933.25;4994516;28;20131;-58
2022/06/24 00:51:00;;;;;;;3.55;1.70;;;;;;;25.89;30.96;98936.38;4994413;28;20414;-60
2022/06/24 00:53:27;;;;;;;3.00;1.80;;;;;;;25.86;30.94;98932.22;5012077;28;20061;-59
2022/06/24 00:55:54;;;;;;;2.67;1.70;;;;;;;25.83;31.23;98929.13;5011953;28;20069;-59
2022/06/24 00:58:20;;;;;;;3.70;2.17;;;;;;;25.81;31.08;98929.31;5011582;28;20061;-59
2022/06/24 01:00:49;;;;;;;2.90;1.65;;;;;;;25.78;31.22;98924.34;5011695;28;20120;-60
2022/06/24 01:03:16;;;;;;;3.33;1.63;;;;;;;25.78;31.16;98918.13;5011617;28;20104;-61
2022/06/24 01:05:43;;;;;;;4.25;2.00;;;;;;;25.76;31.28;98916.47;5011745;28;20045;-61
2022/06/24 01:08:13;;;;;;;3.33;1.92;;;;;;;25.75;31.22;98913.97;5011492;28;20046;-62
2022/06/24 01:10:41;;;;;;;5.20;2.00;;;;;;;25.75;31.32;98903.19;5012069;28;20053;-60
2022/06/24 01:13:09;;;;;;;3.63;2.13;;;;;;;25.75;31.02;98903.19;5011732;28;20104;-62
2022/06/24 01:15:37;;;;;;;4.38;2.28;;;;;;;25.75;30.96;98897.78;5011633;28;20054;-59
2022/06/24 01:18:04;;;;;;;5.60;2.13;;;;;;;25.73;31.31;98892.63;4993595;28;20058;-65
2022/06/24 01:20:31;;;;;;;4.68;2.35;;;;;;;25.73;31.13;98891.78;5011323;28;20050;-60
2022/06/24 01:22:58;;;;;;;4.88;2.22;;;;;;;25.72;31.26;98887.44;5011332;28;20056;-61
2022/06/24 01:25:24;;;;;;;3.40;2.00;;;;;;;25.71;30.86;98888.50;5011526;28;20085;-60
2022/06/24 01:27:51;;;;;;;2.75;1.80;;;;;;;25.69;31.23;98880.63;5011576;28;20054;-59
2022/06/24 01:30:17;;;;;;;3.60;1.95;;;;;;;25.68;31.03;98881.63;5011137;28;20054;-60
2022/06/24 01:32:44;;;;;;;4.18;1.52;;;;;;;25.66;31.15;98869.41;5011273;28;20426;-61
2022/06/24 01:35:12;;;;;;;6.72;2.10;;;;;;;25.65;31.34;98868.59;5011034;28;20129;-62
2022/06/24 01:37:39;;;;;;;3.97;1.88;;;;;;;25.62;31.44;98866.31;5011198;28;20049;-60
2022/06/24 01:40:06;;;;;;;2.72;1.73;;;;;;;25.60;31.18;98855.72;5011097;28;20108;-60
2022/06/24 01:42:32;;;;;;;3.55;1.95;;;;;;;25.59;31.07;98856.78;5011364;28;20391;-61
2022/06/24 01:45:00;;;;;;;3.53;1.40;;;;;;;25.58;30.95;98851.59;5010957;28;20084;-61
2022/06/24 01:47:26;;;;;;;4.50;1.60;;;;;;;25.56;31.15;98854.50;5011198;28;20103;-60
2022/06/24 01:49:52;;;;;;;1.80;1.48;;;;;;;25.56;31.31;98850.94;5010655;28;20124;-59
2022/06/24 01:52:19;;;;;;;5.57;1.88;;;;;;;25.55;31.29;98847.41;5011205;28;20481;-60
2022/06/24 01:54:46;;;;;;;5.15;1.80;;;;;;;25.54;31.24;98851.16;5010886;28;20069;-61
2022/06/24 01:57:12;;;;;;;3.85;1.88;;;;;;;25.53;31.29;98846.78;5011048;28;20046;-60
2022/06/24 01:59:39;;;;;;;2.95;1.90;;;;;;;25.52;31.25;98847.81;5010620;28;20089;-60
2022/06/24 02:02:05;;;;;;;2.92;1.85;;;;;;;25.52;31.27;98845.13;5010836;28;20054;-61
2022/06/24 02:04:32;;;;;;;1.88;1.73;;;;;;;25.52;31.30;98845.13;5010607;28;20046;-61
2022/06/24 02:06:58;;;;;;;2.75;1.55;;;;;;;25.51;31.62;98843.47;5011205;28;20112;-60
2022/06/24 02:09:25;;;;;;;2.33;1.63;;;;;;;25.52;31.42;98837.03;5010670;28;20061;-60
2022/06/24 02:14:37;;;;;;;3.08;1.70;;;;;;;25.49;31.86;98830.22;5010723;28;20050;-59
2022/06/24 02:17:10;;;;;;;3.38;1.80;;;;;;;25.46;31.99;98830.63;4994107;28;20050;-61
2022/06/24 02:19:37;;;;;;;2.47;1.73;;;;;;;25.44;31.71;98824.63;5010648;28;20058;-59
2022/06/24 02:22:04;;;;;;;2.35;1.33;;;;;;;25.42;31.92;98823.19;5010718;28;20050;-59
2022/06/24 02:24:31;;;;;;;3.28;1.73;;;;;;;25.39;31.67;98816.34;5011185;28;20046;-59
2022/06/24 02:26:57;;;;;;;2.17;1.50;;;;;;;25.37;32.10;98821.94;5011016;28;20512;-60
2022/06/24 02:29:24;;;;;;;1.70;1.60;;;;;;;25.37;31.97;98827.31;5010424;28;20116;-59
2022/06/24 02:31:50;;;;;;;2.97;1.98;;;;;;;25.36;32.41;98849.91;5014199;28;20069;-61
2022/06/24 02:34:17;;;;;;;5.10;1.77;;;;;;;25.36;32.10;98854.47;5014657;28;20059;-60
2022/06/24 02:36:43;;;;;;;2.22;1.83;;;;;;;25.35;32.03;98848.25;5014467;28;20085;-60
2022/06/24 02:39:10;;;;;;;1.50;1.35;;;;;;;25.36;31.69;98847.22;5014229;28;20045;-59
2022/06/24 02:41:36;;;;;;;3.33;1.42;;;;;;;25.38;31.32;98847.03;5014533;28;20058;-59
2022/06/24 02:44:03;;;;;;;2.33;1.40;;;;;;;25.43;31.21;98846.38;5014378;28;20060;-63
2022/06/24 02:46:29;;;;;;;2.25;1.50;;;;;;;25.47;31.06;98847.63;5014256;28;20115;-59
2022/06/24 02:48:56;;;;;;;2.53;1.70;;;;;;;25.52;31.19;98853.22;5014257;28;20053;-61
2022/06/24 02:51:23;;;;;;;1.67;1.40;;;;;;;25.57;31.14;98844.56;5014064;28;20483;-59
2022/06/24 02:53:50;;;;;;;1.80;1.42;;;;;;;25.61;31.20;98843.91;5014245;28;20056;-59
2022/06/24 02:56:16;;;;;;;3.70;1.80;;;;;;;25.66;31.19;98839.75;5014110;28;20061;-59
2022/06/24 02:58:43;;;;;;;2.15;1.73;;;;;;;25.70;30.97;98846.38;5013940;28;20045;-62
2022/06/24 03:01:10;;;;;;;2.15;1.50;;;;;;;25.73;30.95;98843.28;5014022;28;20097;-58
2022/06/24 03:03:37;;;;;;;3.58;1.30;;;;;;;25.75;31.33;98843.88;4996613;28;20050;-61
2022/06/24 03:06:05;;;;;;;1.65;1.55;;;;;;;25.77;31.20;98836.44;5014020;28;20054;-60
2022/06/24 03:08:32;;;;;;;2.13;1.60;;;;;;;25.78;31.05;98830.00;4996497;28;20412;-60
2022/06/24 03:10:59;;;;;;;3.50;1.98;;;;;;;25.78;31.30;98827.31;5013708;28;20050;-60
2022/06/24 03:13:26;;;;;;;1.95;1.40;;;;;;;25.78;31.61;98824.59;5013821;28;20541;-59
2022/06/24 03:15:52;;;;;;;2.55;1.73;;;;;;;25.79;31.63;98825.44;5014008;28;20049;-59
2022/06/24 03:18:19;;;;;;;4.13;1.80;;;;;;;25.76;31.50;98824.00;5013881;28;20112;-59
2022/06/24 03:20:46;;;;;;;1.67;1.58;;;;;;;25.74;32.02;98826.06;5013835;28;20266;-63
2022/06/24 03:23:14;;;;;;;4.15;1.90;;;;;;;25.70;32.26;98836.44;4996019;28;20393;-59
2022/06/24 03:25:41;;;;;;;3.22;1.52;;;;;;;25.69;32.46;98823.19;5013507;28;20100;-62
2022/06/24 03:28:08;;;;;;;4.47;1.92;;;;;;;25.65;32.99;98827.31;5013123;28;20058;-63
2022/06/24 03:30:34;;;;;;;3.28;1.98;;;;;;;25.62;32.74;98833.97;5013674;28;20096;-60
2022/06/24 03:33:02;;;;;;;3.47;1.73;;;;;;;25.57;33.00;98839.16;5013574;28;20061;-59
2022/06/24 03:35:29;;;;;;;3.08;2.08;;;;;;;25.53;33.54;98843.28;5013800;28;20057;-59
2022/06/24 03:37:55;;;;;;;3.33;1.80;;;;;;;25.49;33.65;98845.56;5013245;28;20085;-59
2022/06/24 03:40:22;;;;;;;3.80;2.10;;;;;;;25.45;34.44;98830.84;5013109;28;20490;-60
2022/06/24 03:42:50;;;;;;;2.30;1.95;;;;;;;25.42;34.23;98836.66;5013213;28;20049;-60
2022/06/24 03:45:17;;;;;;;5.72;2.15;;;;;;;25.39;34.27;98832.50;5013314;28;20054;-59
2022/06/24 03:47:44;;;;;;;4.82;2.35;;;;;;;25.37;34.70;98842.66;4995825;28;20088;-58
2022/06/24 03:50:10;;;;;;;4.38;2.05;;;;;;;25.35;35.03;98833.97;5012999;28;20449;-60
2022/06/24 03:52:37;;;;;;;3.92;2.20;;;;;;;25.33;35.31;98826.09;4995312;28;20092;-59
2022/06/24 03:55:04;;;;;;;3.28;2.38;;;;;;;25.30;35.33;98831.88;5012975;28;20058;-60
2022/06/24 03:57:30;;;;;;;3.40;1.98;;;;;;;25.27;35.99;98829.63;5013188;28;20120;-61
2022/06/24 03:59:57;;;;;;;2.55;2.00;;;;;;;25.24;36.28;98838.91;5012840;28;20085;-60
2022/06/24 04:02:23;;;;;;;4.78;2.72;;;;;;;25.21;36.46;98849.28;5012905;28;20054;-59
2022/06/24 04:04:50;;;;;;;4.15;2.58;;;;;;;25.17;36.66;98848.03;5012962;28;20107;-59
2022/06/24 04:07:17;;;;;;;3.67;2.20;;;;;;;25.14;36.96;98865.44;5012668;28;20054;-60
2022/06/24 04:09:43;;;;;;;4.40;2.38;;;;;;;25.14;36.89;98848.44;5012576;28;20062;-59
2022/06/24 04:12:10;;;;;;;8.80;2.50;;;;;;;25.14;37.26;98859.19;5012642;28;20057;-59
2022/06/24 04:17:22;;;;;;;4.25;2.60;;;;;;;25.18;37.61;98864.00;5012731;28;20425;-58
2022/06/24 04:19:52;;;;;;;6.65;3.03;;;;;;;25.19;37.90;98886.38;5012485;28;20057;-60
2022/06/24 04:22:20;;;;;;;3.38;2.40;;;;;;;25.21;38.42;98906.69;5012509;28;20050;-59
2022/06/24 04:24:47;;;;;;;5.93;2.80;;;;;;;25.22;38.55;98897.56;5012511;28;20054;-60
2022/06/24 04:27:14;;;;;;;5.43;2.72;;;;;;;25.24;39.20;98868.53;5012411;28;20391;-61
2022/06/24 04:29:40;;;;;;;8.65;3.85;;;;;;;25.24;40.17;98846.19;5012234;28;20065;-59
2022/06/24 04:32:08;;;;;;;7.63;4.22;;;;;;;25.21;41.07;98855.50;5012418;28;20054;-61
2022/06/24 04:34:38;;;;;;;9.25;4.85;;;;;;;25.12;42.29;98851.34;5012263;28;20459;-61
2022/06/24 04:37:06;;;;;;;14.45;4.80;;;;;;;25.03;42.53;98849.88;5012476;28;20057;-59
2022/06/24 04:39:33;;;;;;;12.45;5.45;;;;;;;24.91;42.82;98833.50;5011973;28;20103;-60
2022/06/24 04:41:59;;;;;;;13.30;5.43;;;;;;;24.77;43.96;98830.75;5012316;28;20045;-62
2022/06/24 04:44:26;;;;;;;7.18;4.85;;;;;;;24.64;44.31;98841.47;5011976;28;20057;-59
2022/06/24 04:46:53;;;;;;;10.75;5.60;;;;;;;24.50;44.98;98849.50;5012113;28;20046;-59
2022/06/24 04:49:19;;;;;;;10.85;5.18;;;;;;;24.37;45.45;98844.09;5011747;28;20127;-60
2022/06/24 04:51:46;;;;;;;9.55;5.70;;;;;;;24.23;46.11;98848.56;5012020;28;20112;-60
2022/06/24 04:54:12;;;;;;;9.50;5.45;;;;;;;24.10;46.17;98870.81;5011445;28;20045;-60
2022/06/24 04:56:39;;;;;;;8.23;4.95;;;;;;;23.99;46.52;98891.00;5012035;28;20100;-59
2022/06/24 04:59:06;;;;;;;9.43;5.85;;;;;;;23.90;47.23;98909.13;5011605;28;20061;-60
2022/06/24 05:01:32;;;;;;;8.43;4.57;;;;;;;23.84;47.18;98912.63;5011932;28;20053;-60
2022/06/24 05:04:00;;;;;;;7.30;5.75;;;;;;;23.82;47.88;98910.13;5011460;28;20046;-60
2022/06/24 05:06:27;;;;;;;9.25;5.47;;;;;;;23.80;47.97;98894.19;5011715;28;20542;-59
2022/06/24 05:08:53;;;;;;;8.85;5.55;;;;;;;23.81;48.19;98889.66;5011625;28;20045;-59
2022/06/24 05:11:20;;;;;;;10.20;5.65;;;;;;;23.82;48.32;98878.69;5012032;28;20089;-60
2022/06/24 05:13:46;;;;;;;8.77;5.85;;;;;;;23.83;49.23;98868.78;5011633;28;20057;-59
2022/06/24 05:16:13;;;;;;;9.18;6.57;;;;;;;23.85;49.53;98873.97;4994007;28;20111;-59
2022/06/24 05:19:00;;;;;;;8.48;6.00;;;;;;;23.86;49.35;98860.34;5011804;28;20085;-60
2022/06/24 05:21:26;;;;;;;10.32;6.03;;;;;;;23.87;49.82;98839.66;5011570;28;20457;-61
2022/06/24 05:23:54;;;;;;;9.45;6.43;;;;;;;23.87;50.04;98853.94;5011347;28;20046;-60
2022/06/24 05:26:20;;;;;;;10.13;6.18;;;;;;;23.88;50.29;98852.06;5011533;28;20465;-61
2022/06/24 05:28:47;;;;;;;8.18;6.18;;;;;;;23.88;50.21;98852.06;5010889;28;20468;-64
2022/06/24 05:31:13;;;;;;;10.02;6.90;;;;;;;23.87;50.60;98856.63;5011228;28;20054;-60
2022/06/24 05:33:40;;;;;;;10.88;6.70;;;;;;;23.88;50.92;98870.88;5011398;28;20410;-59
2022/06/24 05:36:07;;;;;;;10.00;6.90;;;;;;;23.89;51.89;98864.47;5011190;28;20057;-61
2022/06/24 05:38:33;;;;;;;10.43;7.20;;;;;;;23.90;51.74;98861.59;5011120;28;20050;-60
2022/06/24 05:41:01;;;;;;;11.18;7.38;;;;;;;23.91;52.27;98874.00;5011129;28;20127;-62
2022/06/24 05:43:28;;;;;;;10.32;6.30;;;;;;;23.96;52.43;98881.50;5010896;28;20046;-60
2022/06/24 05:45:55;;;;;;;9.10;6.75;;;;;;;23.97;52.65;98875.09;5011174;28;20088;-62
2022/06/24 05:48:22;;;;;;;9.93;6.60;;;;;;;24.02;52.85;98882.53;5011066;28;20053;-60
2022/06/24 05:50:48;;;;;;;7.70;6.30;;;;;;;24.05;52.53;98892.91;4993356;28;20045;-60
2022/06/24 05:56:06;;;;;;;9.60;6.80;;;;;;;24.15;53.02;98897.97;5010763;28;20073;-60
2022/06/24 05:58:32;;;;;;;11.48;7.80;;;;;;;24.19;53.12;98900.03;5011002;28;20061;-60
2022/06/24 06:00:59;;;;;;;8.70;6.85;;;;;;;24.23;53.45;98896.97;5010768;28;20061;-63
2022/06/24 06:03:26;;;;;;;8.93;7.30;;;;;;;24.26;53.54;98908.16;5010935;28;20050;-60
2022/06/24 06:05:53;;;;;;;9.38;6.82;;;;;;;24.28;53.62;98908.78;4993414;28;20324;-60
2022/06/24 06:08:19;;;;;;;12.02;7.50;;;;;;;24.31;53.68;98923.69;5010519;28;20054;-61
2022/06/24 06:10:47;;;;;;;11.10;7.38;;;;;;;24.31;53.68;98951.44;5010930;28;20457;-60
2022/06/24 06:13:14;;;;;;;10.48;7.13;;;;;;;24.32;53.48;98971.06;5010864;28;20132;-60
2022/06/24 06:15:42;;;;;;;8.02;7.03;;;;;;;24.32;53.79;98969.22;5010721;28;20053;-60
2022/06/24 06:18:09;;;;;;;10.32;7.90;;;;;;;24.32;54.09;98922.66;5010680;28;20049;-61
2022/06/24 06:20:37;;;;;;;11.95;7.82;;;;;;;24.32;54.47;98930.72;5010547;28;20517;-60
2022/06/24 06:23:09;;;;;;;9.63;7.53;;;;;;;24.32;54.57;98952.25;4993979;28;20049;-60
2022/06/24 06:25:35;;;;;;;11.93;8.15;;;;;;;24.29;54.60;98933.84;5010718;28;20115;-63
2022/06/24 06:28:02;;;;;;;12.55;7.90;;;;;;;24.25;55.06;98909.19;5010695;28;20092;-60
2022/06/24 06:30:30;;;;;;;10.52;7.32;;;;;;;24.22;55.44;98911.44;5010426;28;20101;-61
2022/06/24 06:32:57;;;;;;;12.85;7.88;;;;;;;24.18;55.56;98927.16;5010758;28;20108;-60
2022/06/24 06:35:23;;;;;;;11.70;8.38;;;;;;;24.15;55.47;98914.09;5010488;28;20057;-60
2022/06/24 06:37:50;;;;;;;8.90;6.75;;;;;;;24.12;55.90;98911.78;5010411;28;20050;-60
2022/06/24 06:40:17;;;;;;;9.32;6.82;;;;;;;24.07;55.46;98907.81;5010518;28;20116;-61
2022/06/24 06:42:43;;;;;;;8.52;6.35;;;;;;;24.05;55.78;98909.03;5010699;28;20054;-60
2022/06/24 06:45:10;;;;;;;7.93;6.20;;;;;;;24.02;56.14;98915.63;4992882;28;20502;-60
2022/06/24 06:47:36;;;;;;;7.63;5.65;;;;;;;24.01;56.20;98913.97;5010506;28;20058;-60
2022/06/24 06:50:05;;;;;;;8.40;5.72;;;;;;;23.99;56.32;98894.50;5010036;28;20046;-60
2022/06/24 06:52:38;;;;;;;6.35;5.45;;;;;;;24.00;55.83;98892.66;5010626;28;20132;-60
2022/06/24 06:55:05;;;;;;;7.40;5.70;;;;;;;24.00;56.44;98895.34;5010463;28;20057;-61
2022/06/24 06:57:32;;;;;;;6.80;5.95;;;;;;;24.00;56.34;98896.16;5010341;28;20413;-61
2022/06/24 06:59:59;;;;;;;8.40;6.15;;;;;;;24.02;56.41;98909.41;5010007;28;20053;-60
2022/06/24 07:02:25;;;;;;;9.52;5.75;;;;;;;24.02;56.76;98896.81;5010256;28;20054;-61
2022/06/24 07:04:52;;;;;;;6.97;5.60;;;;;;;24.04;57.02;98902.81;5010206;28;20054;-62
2022/06/24 07:07:19;;;;;;;10.90;6.15;;;;;;;24.06;56.78;98898.09;5010164;28;20486;-60
2022/06/24 07:09:45;;;;;;;8.52;5.53;;;;;;;24.08;56.63;98912.16;5010446;28;20058;-61
2022/06/24 07:12:13;;;;;;;7.45;5.60;;;;;;;24.12;57.31;98923.38;5010057;28;20053;-60
2022/06/24 07:14:43;;;;;;;8.10;5.75;;;;;;;24.15;57.70;98935.59;5010138;28;20072;-60
2022/06/24 07:17:13;;;;;;;7.70;5.97;;;;;;;24.18;56.90;98938.72;5012449;28;20136;-60
2022/06/24 07:19:40;;;;;;;9.68;5.93;;;;;;;24.21;56.65;98942.88;5014200;28;20454;-59
2022/06/24 07:22:07;;;;;;;9.50;5.40;;;;;;;24.23;56.85;98919.31;5013766;28;20426;-63
2022/06/24 07:24:34;;;;;;;7.28;5.35;;;;;;;24.25;56.72;98889.53;5013771;28;20061;-60
2022/06/24 07:27:08;;;;;;;7.10;5.00;;;;;;;24.24;57.48;98883.31;5013639;28;20049;-59
2022/06/24 07:29:35;;;;;;;8.60;5.28;;;;;;;24.26;56.95;98864.31;4996031;28;20066;-60
2022/06/24 07:32:04;;;;;;;9.60;6.35;;;;;;;24.27;57.33;98852.50;4995843;28;20552;-60
2022/06/24 07:34:32;;;;;;;9.13;5.68;;;;;;;24.28;57.17;98854.16;4995938;28;20706;-59
2022/06/24 07:37:00;;;;;;;8.50;6.50;;;;;;;24.28;57.33;98856.84;4996012;28;20077;-60
2022/06/24 07:39:27;;;;;;;8.73;6.82;;;;;;;24.27;57.33;98858.72;5013226;28;20053;-59
2022/06/24 07:41:55;;;;;;;9.05;6.60;;;;;;;24.26;57.56;98862.44;4995768;28;20053;-58
2022/06/24 07:44:22;;;;;;;9.82;7.22;;;;;;;24.25;57.55;98858.09;5013124;28;20186;-62
2022/06/24 07:46:49;;;;;;;8.48;6.93;;;;;;;24.27;57.94;98860.59;5013338;28;20057;-59
2022/06/24 07:49:17;;;;;;;10.38;8.23;;;;;;;24.28;58.11;98859.53;4995661;28;20057;-60
2022/06/24 07:51:44;;;;;;;10.25;8.65;;;;;;;24.31;58.29;98861.84;4995659;28;20148;-63
2022/06/24 07:54:10;;;;;;;9.02;8.05;;;;;;;24.33;58.36;98866.00;5013354;28;20054;-60
2022/06/24 07:59:29;;;;;;;8.80;7.85;;;;;;;24.37;58.79;98865.59;5012701;28;20069;-60
2022/06/24 08:01:57;;;;;;;11.88;7.82;;;;;;;24.42;58.31;98869.34;5013149;28;20112;-61
2022/06/24 08:04:25;;;;;;;11.02;7.20;;;;;;;24.45;57.83;98857.38;4995380;28;20046;-59
2022/06/24 08:06:52;;;;;;;10.45;7.22;;;;;;;24.48;58.14;98851.56;4995468;28;20054;-60
2022/06/24 08:09:21;;;;;;;9.15;7.55;;;;;;;24.51;58.33;98856.53;5012553;28;20061;-61
2022/06/24 08:11:47;;;;;;;11.13;6.97;;;;;;;24.55;58.20;98857.81;5012904;28;20053;-59
2022/06/24 08:14:15;;;;;;;9.50;7.35;;;;;;;24.59;58.37;98875.19;5013074;28;20512;-61
2022/06/24 08:16:42;;;;;;;12.90;8.27;;;;;;;24.63;58.29;98872.13;5012674;28;20430;-60
2022/06/24 08:19:13;;;;;;;9.45;7.75;;;;;;;24.67;58.76;98876.06;5012450;28;20542;-60
2022/06/24 08:21:39;;;;;;;9.85;8.05;;;;;;;24.70;58.24;98870.25;5012515;28;20105;-59
2022/06/24 08:24:06;;;;;;;12.32;7.00;;;;;;;24.76;58.60;98863.25;5012501;28;20053;-59
2022/06/24 08:26:33;;;;;;;10.25;6.85;;;;;;;24.80;58.48;98870.72;5012540;28;20050;-61
2022/06/24 08:29:00;;;;;;;9.13;6.78;;;;;;;24.85;58.39;98867.44;4993919;28;20054;-59
2022/06/24 08:31:26;;;;;;;7.28;6.15;;;;;;;24.91;58.58;98865.81;5012341;28;20085;-61
2022/06/24 08:33:53;;;;;;;9.02;5.68;;;;;;;24.97;58.64;98860.44;5012318;28;20046;-60
2022/06/24 08:36:24;;;;;;;5.03;4.38;;;;;;;25.05;57.87;98862.13;5012112;28;20046;-60
2022/06/24 08:38:51;;;;;;;6.00;4.50;;;;;;;25.14;57.74;98865.44;4994892;28;20499;-62
2022/06/24 08:41:22;;;;;;;6.72;4.32;;;;;;;25.19;57.94;98859.44;5012439;28;20053;-61
2022/06/24 08:43:50;;;;;;;7.18;4.32;;;;;;;25.25;57.48;98869.38;4994823;28;20414;-59
2022/06/24 08:46:17;;;;;;;7.95;3.80;;;;;;;25.30;57.27;98871.47;5012251;28;20100;-62
2022/06/24 08:48:44;;;;;;;5.07;2.55;;;;;;;25.32;56.79;98864.00;5011579;28;20137;-59
2022/06/24 08:51:14;;;;;;;5.20;3.13;;;;;;;25.32;56.70;98861.31;5012186;28;20108;-59
2022/06/24 08:53:41;;;;;;;7.57;2.70;;;;;;;25.34;56.39;98853.84;5011915;28;20073;-59
2022/06/24 08:56:10;;;;;;;2.90;2.60;;;;;;;25.33;56.11;98847.63;5012093;28;20049;-60
2022/06/24 08:58:37;;;;;;;5.55;2.80;;;;;;;25.35;56.34;98855.50;4994265;28;20054;-60
2022/06/24 09:01:14;;;;;;;5.85;2.70;;;;;;;25.34;56.90;98854.66;5011813;28;20487;-60
2022/06/24 09:03:43;;;;;;;2.58;2.30;;;;;;;25.37;56.41;98859.66;4994438;28;20149;-59
2022/06/24 09:06:14;;;;;;;4.40;2.28;;;;;;;25.43;56.31;98857.16;4994511;28;20053;-61
2022/06/24 09:08:48;;;;;;;4.07;2.03;;;;;;;25.47;57.66;98858.41;5011668;28;20053;-59
2022/06/24 09:11:15;;;;;;;3.38;1.60;;;;;;;25.58;56.40;98854.28;5011900;28;20396;-60
2022/06/24 09:13:45;;;;;;;6.80;2.30;;;;;;;25.66;56.34;98856.75;5011537;28;20050;-60
2022/06/24 09:16:13;;;;;;;3.28;1.90;;;;;;;25.79;56.25;98857.78;5011675;28;20046;-60
2022/06/24 09:18:40;;;;;;;3.97;1.92;;;;;;;25.91;55.85;98857.97;4994019;28;20062;-60
2022/06/24 09:21:07;;;;;;;2.42;1.95;;;;;;;26.02;55.82;98854.63;5011516;28;20563;-60
2022/06/24 09:23:51;;;;;;;2.80;2.00;;;;;;;26.10;55.42;98857.09;5011465;28;20647;-62
2022/06/24 09:26:29;;;;;;;4.60;1.83;;;;;;;26.24;55.53;98870.56;4993885;28;20053;-59
2022/06/24 09:28:56;;;;;;;4.97;1.92;;;;;;;26.31;54.08;98865.97;5011160;28;20054;-60
2022/06/24 09:31:27;;;;;;;3.65;1.73;;;;;;;26.32;53.84;98873.06;4993843;28;20042;-59
2022/06/24 09:33:55;;;;;;;5.15;2.08;;;;;;;26.34;53.88;98872.81;4993776;28;20498;-61
2022/06/24 09:36:24;;;;;;;2.25;1.58;;;;;;;26.32;53.90;98875.75;5011209;28;20100;-59
2022/06/24 09:38:54;;;;;;;3.28;1.88;;;;;;;26.32;53.66;98875.75;5010587;28;20049;-60
2022/06/24 09:41:21;;;;;;;3.83;1.63;;;;;;;26.32;52.91;98881.13;5011399;28;20046;-60
2022/06/24 09:43:47;;;;;;;5.15;1.83;;;;;;;26.27;52.62;98883.63;5011505;28;20120;-61
2022/06/24 09:46:22;;;;;;;5.80;1.80;;;;;;;26.14;52.54;98882.63;5011084;28;20556;-61
2022/06/24 09:48:57;;;;;;;3.03;1.80;;;;;;;26.07;52.45;98891.75;5010900;28;20096;-60
2022/06/24 09:51:24;;;;;;;3.30;1.77;;;;;;;25.97;52.23;98892.16;5011134;28;20419;-59
2022/06/24 09:53:51;;;;;;;3.47;1.63;;;;;;;25.86;52.26;98883.69;5010999;28;20050;-62
2022/06/24 09:56:20;;;;;;;6.18;2.20;;;;;;;25.76;52.66;98881.41;4993380;28;20536;-60
2022/06/24 10:01:37;;;;;;;5.57;2.22;;;;;;;25.64;54.12;98885.78;5011072;28;20103;-59
2022/06/24 10:04:05;;;;;;;4.57;2.25;;;;;;;25.65;53.73;98890.16;4993488;28;20054;-60
2022/06/24 10:06:34;;;;;;;3.72;1.70;;;;;;;25.68;54.48;98880.81;4993492;28;20042;-59
2022/06/24 10:09:04;;;;;;;3.33;1.88;;;;;;;25.74;54.95;98886.19;5010830;28;20108;-60
2022/06/24 10:11:37;;;;;;;4.20;1.83;;;;;;;25.85;54.36;98882.03;5010691;28;20061;-59
2022/06/24 10:14:04;;;;;;;4.45;2.30;;;;;;;25.95;54.46;98878.94;5010683;28;20453;-60
2022/06/24 10:16:32;;;;;;;3.88;2.13;;;;;;;26.07;54.54;98876.41;5010682;28;20643;-60
2022/06/24 10:19:01;;;;;;;4.05;2.60;;;;;;;26.18;54.83;98874.09;4993391;28;20395;-63
2022/06/24 10:21:28;;;;;;;7.50;3.55;;;;;;;26.32;54.25;98881.13;5010307;28;20050;-60
2022/06/24 10:23:56;;;;;;;7.95;4.03;;;;;;;26.45;53.67;98868.63;5010677;28;20564;-60
2022/06/24 10:26:34;;;;;;;5.22;3.33;;;;;;;26.56;54.09;98865.25;4993177;28;20414;-60
2022/06/24 10:29:03;;;;;;;8.63;3.90;;;;;;;26.69;54.22;98853.59;5010329;28;20067;-59
2022/06/24 10:31:48;;;;;;;7.18;3.97;;;;;;;26.82;54.26;98855.38;5010634;28;20058;-59
2022/06/24 10:34:20;;;;;;;4.80;3.70;;;;;;;27.04;53.69;98852.34;4993386;28;20054;-62
2022/06/24 10:36:50;;;;;;;13.05;4.53;;;;;;;27.27;53.33;98846.38;5010548;28;20042;-59
2022/06/24 10:39:22;;;;;;;5.15;3.40;;;;;;;27.45;52.30;98845.59;4993141;28;20326;-59
2022/06/24 10:42:03;;;;;;;7.07;4.07;;;;;;;27.59;52.13;98840.09;5010596;28;20045;-60
2022/06/24 10:44:32;;;;;;;7.53;4.28;;;;;;;27.72;51.33;98839.16;4993237;28;20394;-60
2022/06/24 10:47:04;;;;;;;6.57;4.22;;;;;;;27.77;50.78;98855.50;5010358;28;20084;-60
2022/06/24 10:49:50;;;;;;;4.45;4.05;;;;;;;27.76;50.91;98847.63;5010741;28;20361;-60
2022/06/24 10:52:48;;;;;;;6.57;4.70;;;;;;;27.76;51.06;98851.16;4995516;28;20115;-59
2022/06/24 10:55:17;;;;;;;6.05;4.97;;;;;;;27.80;50.52;98860.50;5014304;28;20470;-60
2022/06/24 10:57:46;;;;;;;7.70;5.13;;;;;;;27.80;50.53;98859.66;5014172;28;20054;-59
2022/06/24 11:00:28;;;;;;;6.75;4.80;;;;;;;27.79;50.30;98856.13;5013870;28;20441;-59
2022/06/24 11:03:03;;;;;;;7.95;5.38;;;;;;;27.70;49.92;98866.41;5014495;28;20112;-60
2022/06/24 11:05:34;;;;;;;10.13;6.18;;;;;;;27.61;49.71;98867.72;5013796;28;20065;-63
2022/06/24 11:08:03;;;;;;;8.13;6.53;;;;;;;27.49;49.86;98882.97;4996472;28;20054;-61
2022/06/24 11:10:31;;;;;;;7.75;6.93;;;;;;;27.30;50.35;98870.25;5013917;28;20057;-61
2022/06/24 11:12:59;;;;;;;9.30;7.43;;;;;;;27.13;50.48;98880.75;4996858;28;20486;-60
2022/06/24 11:15:32;;;;;;;8.95;7.32;;;;;;;26.97;50.98;98886.66;5013903;28;20465;-61
2022/06/24 11:18:05;;;;;;;11.32;7.05;;;;;;;26.84;51.46;98885.69;5013627;28;20049;-60
2022/06/24 11:20:36;;;;;;;7.85;7.05;;;;;;;26.73;51.91;98881.81;5013840;28;20135;-62
2022/06/24 11:23:14;;;;;;;10.15;7.72;;;;;;;26.67;52.32;98886.19;5014120;28;20045;-60
2022/06/24 11:25:48;;;;;;;7.82;7.13;;;;;;;26.67;52.43;98877.25;5013631;28;20046;-61
2022/06/24 11:28:21;;;;;;;8.13;7.35;;;;;;;26.68;52.56;98887.00;5013651;28;20050;-61
2022/06/24 11:30:50;;;;;;;7.95;7.22;;;;;;;26.67;52.43;98899.69;4996187;28;20112;-62
2022/06/24 11:33:18;;;;;;;5.13;4.72;;;;;;;26.64;51.80;98892.00;4996123;28;20153;-60
2022/06/24 11:35:49;;;;;;;4.40;4.00;;;;;;;26.53;52.02;98904.31;5013407;28;20105;-62
2022/06/24 11:38:22;;;;;;;3.80;3.35;;;;;;;26.46;51.82;98914.28;5013370;28;20050;-63
2022/06/24 11:40:49;;;;;;;3.00;2.70;;;;;;;26.36;52.13;98913.91;5013493;28;20499;-63
2022/06/24 11:43:16;;;;;;;2.13;1.92;;;;;;;26.30;52.30;98928.22;5013368;28;20054;-59
2022/06/24 11:45:45;;;;;;;2.42;2.10;;;;;;;26.25;52.71;98923.44;5013225;28;20050;-61
2022/06/24 11:48:21;;;;;;;2.17;1.65;;;;;;;26.25;53.25;98926.16;4995548;28;20054;-61
2022/06/24 11:50:48;;;;;;;1.70;1.60;;;;;;;26.33;53.06;98914.31;5013552;28;20062;-60
2022/06/24 11:53:16;;;;;;;1.67;1.50;;;;;;;26.39;53.32;98911.59;4995563;28;20096;-63